Time;durP1;ratioP1;P1;durP2;ratioP2;P2;SDS_P1;SDS_P2;PMS_P1;PMS_P2;Temp;Humidity;BMP_temperature;BMP_pressure;BME280_temperature;BME280_humidity;BME280_pressure;Samples;Min_cycle;Max_cycle;Signal;HPM_P1;HPM_P2
2021/12/06 00:01:20;;;;;;;;;;;;;;;2.19;84.05;96952.47;103943;1352;22646;-59
2021/12/06 00:03:52;;;;;;;;;;;;;;;2.18;84.04;96954.72;103911;1352;22654;-60
2021/12/06 00:06:23;;;;;;;;;;;;;;;2.13;83.83;96954.52;103949;1352;22485;-60
2021/12/06 00:08:53;;;;;;;;;;;;;;;2.13;84.08;96953.29;103949;1352;22501;-59
2021/12/06 00:11:22;;;;;;;;;;;;;;;2.16;84.00;96955.04;103962;1352;23376;-59
2021/12/06 00:13:50;;;;;;;;;;;;;;;2.18;83.88;96950.73;103961;1352;22624;-63
2021/12/06 00:16:21;;;;;;;;;;;;;;;2.21;83.94;96950.63;103956;1352;22714;-59
2021/12/06 00:18:51;;;;;;;;;;;;;;;2.20;84.09;96950.66;103967;1351;22689;-60
2021/12/06 00:21:20;;;;;;;;;;;;;;;2.19;84.04;96952.48;103971;1351;23439;-60
2021/12/06 00:23:48;;;;;;;;;;;;;;;2.17;84.40;96950.73;103976;1353;22514;-60
2021/12/06 00:26:17;;;;;;;;;;;;;;;2.16;84.22;96947.75;103968;1352;23364;-59
2021/12/06 00:28:55;;;;;;;;;;;;;;;2.14;84.18;96950.89;103955;1351;22581;-61
2021/12/06 00:31:30;;;;;;;;;;;;;;;2.14;84.07;96950.04;103955;1352;22513;-59
2021/12/06 00:34:04;;;;;;;;;;;;;;;2.16;84.09;96946.59;103958;1349;23132;-60
2021/12/06 00:36:34;;;;;;;;;;;;;;;2.18;84.23;96946.31;103968;1352;22605;-59
2021/12/06 00:39:05;;;;;;;;;;;;;;;2.21;84.05;96947.27;103945;1352;22539;-59
2021/12/06 00:41:34;;;;;;;;;;;;;;;2.19;84.07;96944.08;103969;1352;22640;-60
2021/12/06 00:44:03;;;;;;;;;;;;;;;2.14;83.95;96940.79;103954;1352;22687;-59
2021/12/06 00:46:32;;;;;;;;;;;;;;;2.10;83.97;96940.90;103965;1352;23393;-58
2021/12/06 00:49:00;;;;;;;;;;;;;;;2.11;84.22;96946.58;103988;1353;23381;-59
2021/12/06 00:51:28;;;;;;;;;;;;;;;2.12;84.06;96947.13;103967;1352;22526;-59
2021/12/06 00:53:56;;;;;;;;;;;;;;;2.10;83.86;96946.06;103950;1352;22640;-58
2021/12/06 00:56:24;;;;;;;;;;;;;;;2.09;83.99;96947.77;103968;1351;22615;-59
2021/12/06 00:58:52;;;;;;;;;;;;;;;2.10;83.98;96948.14;103945;1352;22630;-59
2021/12/06 01:01:21;;;;;;;;;;;;;;;2.11;83.95;96953.28;103958;1352;22728;-59
2021/12/06 01:03:50;;;;;;;;;;;;;;;2.08;83.92;96947.39;103940;1352;22730;-60
2021/12/06 01:06:20;;;;;;;;;;;;;;;2.03;84.15;96948.03;103931;1344;22633;-59
2021/12/06 01:08:49;;;;;;;;;;;;;;;1.99;84.21;96948.95;103963;1352;22568;-60
2021/12/06 01:11:17;;;;;;;;;;;;;;;1.97;84.22;96957.65;103974;1353;22577;-60
2021/12/06 01:13:45;;;;;;;;;;;;;;;1.95;84.45;96960.63;103924;1352;22543;-59
2021/12/06 01:16:13;;;;;;;;;;;;;;;1.94;84.22;96967.22;103972;1352;22759;-59
2021/12/06 01:18:41;;;;;;;;;;;;;;;1.92;84.37;96976.84;103985;1352;22668;-59
2021/12/06 01:24:03;;;;;;;;;;;;;;;1.80;84.06;96987.08;103049;1353;60257;-58
2021/12/06 01:39:17;;;;;;;132.60;101.70;;;;;;;1.93;84.55;96936.98;105781;1328;22583;-58
2021/12/06 01:41:54;;;;;;;134.10;100.60;;;;;;;1.94;84.47;96929.23;105521;1331;22494;-58
2021/12/06 01:44:27;;;;;;;114.50;94.40;;;;;;;1.94;84.29;96922.85;105504;1332;22597;-58
2021/12/06 01:47:18;;;;;;;121.00;98.50;;;;;;;1.99;84.51;96918.54;105487;1331;22581;-58
2021/12/06 01:49:50;;;;;;;118.90;100.20;;;;;;;2.03;84.68;96929.42;105461;1327;175750;-57
2021/12/06 01:52:26;;;;;;;134.80;102.00;;;;;;;2.05;84.54;96939.41;105606;1329;137753;-57
2021/12/06 01:54:56;;;;;;;112.50;94.00;;;;;;;2.02;84.29;96934.00;105339;1332;137396;-58
2021/12/06 01:57:26;;;;;;;103.40;90.50;;;;;;;2.02;84.54;96926.98;105417;1332;37205;-58
2021/12/06 01:59:55;;;;;;;100.30;89.10;;;;;;;2.02;84.27;96938.67;105446;1331;23028;-59
2021/12/06 02:02:25;;;;;;;116.40;96.00;;;;;;;1.98;84.22;96942.61;105454;1332;22555;-59
2021/12/06 02:04:53;;;;;;;128.10;98.90;;;;;;;1.94;84.27;96930.77;106230;1325;22459;-59
2021/12/06 02:07:28;;;;;;;137.10;105.30;;;;;;;1.92;84.56;96922.80;106184;1325;22520;-59
2021/12/06 02:09:59;;;;;;;134.90;100.60;;;;;;;1.91;84.78;96930.23;106233;1325;22485;-58
2021/12/06 02:12:31;;;;;;;110.90;94.40;;;;;;;1.90;84.50;96936.61;106048;1325;22428;-57
2021/12/06 02:17:35;;;;;;;132.70;102.80;;;;;;;1.96;84.61;96930.81;106166;1325;137467;-58
2021/12/06 02:20:14;;;;;;;139.30;107.00;;;;;;;1.95;84.36;96944.99;105843;1325;22611;-58
2021/12/06 02:22:45;;;;;;;144.60;104.10;;;;;;;1.90;84.32;96944.70;105973;1325;22495;-58
2021/12/06 02:25:18;;;;;;;131.00;101.70;;;;;;;1.84;84.68;96948.56;106008;1325;23143;-59
2021/12/06 02:27:49;;;;;;;126.00;97.20;;;;;;;1.85;84.70;96955.98;106040;1325;22304;-58
2021/12/06 02:30:19;;;;;;;127.40;98.80;;;;;;;1.87;84.84;96954.88;105983;1325;22610;-58
2021/12/06 02:32:49;;;;;;;131.80;103.00;;;;;;;1.89;84.65;96951.33;106269;1323;23198;-58
2021/12/06 02:35:21;;;;;;;155.50;107.40;;;;;;;1.87;84.52;96945.96;106186;1326;23180;-56
2021/12/06 02:37:52;;;;;;;149.00;102.40;;;;;;;1.81;84.63;96945.28;106024;1326;22482;-57
2021/12/06 02:40:29;;;;;;;131.40;97.60;;;;;;;1.77;84.56;96948.29;106021;1326;22508;-58
2021/12/06 02:43:00;;;;;;;142.20;104.80;;;;;;;1.77;84.55;96951.85;105991;1326;22316;-58
2021/12/06 02:45:30;;;;;;;154.40;109.30;;;;;;;1.75;84.69;96955.58;106028;1326;22498;-57
2021/12/06 02:48:05;;;;;;;157.70;110.40;;;;;;;1.74;84.73;96966.51;106231;1326;22479;-57
2021/12/06 02:50:46;;;;;;;162.20;110.50;;;;;;;1.72;84.92;96970.13;106014;1326;23233;-57
2021/12/06 02:53:15;;;;;;;154.30;108.50;;;;;;;1.71;84.86;96975.48;106215;1326;22368;-58
2021/12/06 02:55:44;;;;;;;155.80;108.10;;;;;;;1.70;84.90;96978.14;105998;1326;22628;-58
2021/12/06 02:58:45;;;;;;;159.90;112.70;;;;;;;1.66;84.92;96977.17;105909;1326;22556;-57
2021/12/06 03:01:17;;;;;;;;;;;;;;;1.65;85.05;96978.13;106255;1326;23271;-58
2021/12/06 03:03:46;;;;;;;158.50;109.80;;;;;;;1.58;85.06;96975.58;106186;1326;22487;-57
2021/12/06 03:06:14;;;;;;;148.40;105.80;;;;;;;1.57;85.15;96974.02;105985;1326;22601;-58
2021/12/06 03:09:04;;;;;;;160.40;109.30;;;;;;;1.56;85.54;96978.98;105992;1320;23613;-58
2021/12/06 03:11:48;;;;;;;173.70;118.60;;;;;;;1.51;85.54;96977.54;106245;1326;22366;-58
2021/12/06 03:14:22;;;;;;;182.10;116.20;;;;;;;1.44;85.44;96972.62;106223;1326;22384;-59
2021/12/06 03:16:53;;;;;;;177.40;118.40;;;;;;;1.39;85.76;96975.17;105994;1326;22508;-59
2021/12/06 03:19:22;;;;;;;169.30;116.30;;;;;;;1.37;85.92;96974.89;105985;1326;23689;-58
2021/12/06 03:21:51;;;;;;;167.70;116.90;;;;;;;1.33;85.79;96970.48;105995;1327;23251;-59
2021/12/06 03:24:21;;;;;;;148.80;106.50;;;;;;;1.33;85.90;96970.64;106001;1326;22603;-58
2021/12/06 03:26:50;;;;;;;166.00;112.40;;;;;;;1.30;86.57;96966.34;105968;1326;22603;-58
2021/12/06 03:29:18;;;;;;;159.10;106.90;;;;;;;1.28;86.32;96968.55;106248;1325;22602;-58
2021/12/06 03:31:47;;;;;;;133.80;96.80;;;;;;;1.30;86.24;96965.16;106122;1325;22555;-58
2021/12/06 03:34:17;;;;;;;126.80;92.90;;;;;;;1.34;86.02;96965.07;106071;1325;22552;-58
2021/12/06 03:36:48;;;;;;;123.30;91.70;;;;;;;1.35;86.38;96964.54;106089;1325;22596;-58
2021/12/06 03:39:23;;;;;;;146.70;100.50;;;;;;;1.34;86.30;96965.60;106242;1325;22644;-57
2021/12/06 03:41:56;;;;;;;;;;;;;;;1.29;86.18;96960.23;106111;1325;22588;-57
2021/12/06 03:44:25;;;;;;;118.40;88.70;;;;;;;1.22;86.39;96952.04;106241;1325;22602;-58
2021/12/06 03:46:57;;;;;;;116.90;89.60;;;;;;;1.21;86.85;96946.67;106107;1325;22457;-58
2021/12/06 03:49:26;;;;;;;124.30;93.30;;;;;;;1.19;87.14;96945.45;106223;1325;22372;-58
2021/12/06 03:51:54;;;;;;;130.60;92.80;;;;;;;1.14;86.82;96948.83;106232;1325;22401;-58
2021/12/06 03:54:26;;;;;;;155.60;99.90;;;;;;;1.13;86.95;96955.55;106091;1325;22315;-58
2021/12/06 03:56:56;;;;;;;141.50;96.60;;;;;;;1.08;87.22;96964.89;106099;1325;22332;-58
2021/12/06 03:59:24;;;;;;;145.20;94.30;;;;;;;1.06;87.59;96963.55;106064;1319;22592;-58
2021/12/06 04:01:53;;;;;;;157.50;99.40;;;;;;;1.02;87.57;96963.64;106228;1325;22589;-58
2021/12/06 04:04:24;;;;;;;159.70;103.60;;;;;;;1.01;87.34;96958.70;106132;1325;22553;-58
2021/12/06 04:06:53;;;;;;;182.60;110.90;;;;;;;1.04;87.39;96964.08;106059;1325;22486;-59
2021/12/06 04:09:21;;;;;;;196.20;115.20;;;;;;;1.02;87.35;96968.30;106100;1325;22295;-58
2021/12/06 04:11:50;;;;;;;189.30;106.40;;;;;;;1.00;87.53;96970.11;106121;1325;22624;-58
2021/12/06 04:14:19;;;;;;;184.50;107.20;;;;;;;0.99;87.94;96968.09;106211;1325;22596;-57
2021/12/06 04:16:48;;;;;;;185.70;108.70;;;;;;;0.99;87.96;96964.06;106135;1325;22460;-58
2021/12/06 04:19:17;;;;;;;181.40;107.40;;;;;;;0.98;87.85;96965.76;106190;1325;22408;-58
2021/12/06 04:21:47;;;;;;;222.90;118.70;;;;;;;1.02;87.70;96971.80;106078;1325;22580;-59
2021/12/06 04:24:15;;;;;;;197.20;113.20;;;;;;;1.04;87.55;96972.67;106245;1325;22619;-59
2021/12/06 04:26:44;;;;;;;194.90;114.60;;;;;;;1.04;87.57;96970.87;106122;1325;22474;-58
2021/12/06 04:29:13;;;;;;;169.70;105.90;;;;;;;1.05;87.45;96978.29;106113;1324;22713;-57
2021/12/06 04:31:48;;;;;;;150.10;97.60;;;;;;;1.11;87.63;96978.17;106081;1325;22514;-56
2021/12/06 04:34:17;;;;;;;166.80;106.60;;;;;;;1.14;87.96;96976.68;106253;1325;22534;-58
2021/12/06 04:36:46;;;;;;;156.10;102.90;;;;;;;1.11;87.98;96978.85;106223;1325;23248;-58
2021/12/06 04:39:17;;;;;;;152.70;100.30;;;;;;;1.08;88.34;96986.00;106232;1325;22493;-58
2021/12/06 04:41:46;;;;;;;137.10;93.60;;;;;;;1.06;87.90;96992.36;106107;1325;22463;-58
2021/12/06 04:44:15;;;;;;;131.00;91.90;;;;;;;1.12;87.90;96999.80;106101;1325;22577;-58
2021/12/06 04:46:44;;;;;;;112.20;82.80;;;;;;;1.19;87.84;96999.46;106237;1325;22479;-58
2021/12/06 04:49:12;;;;;;;137.60;92.70;;;;;;;1.24;87.99;96988.18;106133;1326;23379;-59
2021/12/06 04:51:44;;;;;;;130.40;85.60;;;;;;;1.23;88.22;96982.29;106107;1325;22593;-58
2021/12/06 04:54:16;;;;;;;122.20;86.60;;;;;;;1.19;88.54;96985.20;106089;1325;22582;-58
2021/12/06 04:56:52;;;;;;;107.10;76.70;;;;;;;1.17;88.54;96991.60;106087;1325;22474;-59
2021/12/06 04:59:40;;;;;;;101.70;75.90;;;;;;;1.14;88.84;97000.63;106261;1324;22611;-58
2021/12/06 05:02:14;;;;;;;93.30;76.10;;;;;;;1.14;89.07;97005.12;106198;1325;22383;-58
2021/12/06 05:04:47;;;;;;;95.40;72.00;;;;;;;1.10;88.90;97000.34;106251;1324;23018;-58
2021/12/06 05:07:26;;;;;;;84.90;69.60;;;;;;;1.09;89.58;96999.64;106219;1325;22639;-57
2021/12/06 05:09:55;;;;;;;91.60;70.40;;;;;;;1.04;89.34;96998.83;106227;1325;23260;-58
2021/12/06 05:12:28;;;;;;;74.90;67.10;;;;;;;1.05;89.55;97000.15;106230;1325;22476;-58
2021/12/06 05:14:57;;;;;;;73.40;64.70;;;;;;;1.07;89.82;97005.00;106226;1324;22480;-58
2021/12/06 05:17:26;;;;;;;66.50;59.40;;;;;;;1.06;89.89;97015.60;106259;1325;22486;-58
2021/12/06 05:19:55;;;;;;;60.50;54.30;;;;;;;1.07;90.22;97025.42;106204;1325;22502;-58
2021/12/06 05:22:24;;;;;;;61.20;54.30;;;;;;;1.02;90.19;97026.36;106244;1324;22767;-58
2021/12/06 05:24:52;;;;;;;51.40;46.00;;;;;;;1.02;90.15;97025.23;106237;1325;22596;-58
2021/12/06 05:27:26;;;;;;;52.80;47.50;;;;;;;1.00;90.08;97032.77;106225;1325;22266;-58
2021/12/06 05:30:00;;;;;;;47.60;42.80;;;;;;;1.03;89.83;97038.77;106231;1325;22275;-59
2021/12/06 05:32:32;;;;;;;43.80;39.20;;;;;;;1.09;90.27;97046.09;106234;1325;23185;-58
2021/12/06 05:35:06;;;;;;;46.00;41.20;;;;;;;1.08;90.28;97049.36;106255;1325;22512;-58
2021/12/06 05:37:48;;;;;;;50.30;45.20;;;;;;;1.07;90.50;97048.61;106276;1325;22298;-58
2021/12/06 05:40:22;;;;;;;44.30;39.50;;;;;;;0.98;90.54;97058.11;106235;1325;23199;-60
2021/12/06 05:42:51;;;;;;;48.30;40.30;;;;;;;0.93;90.69;97056.88;106253;1324;23170;-58
2021/12/06 05:45:21;;;;;;;42.00;37.70;;;;;;;0.89;90.64;97058.02;106265;1324;23169;-58
2021/12/06 05:47:50;;;;;;;39.50;35.30;;;;;;;0.87;90.89;97056.48;106258;1324;22463;-58
2021/12/06 05:50:19;;;;;;;41.40;37.00;;;;;;;0.88;90.59;97055.46;106277;1325;22575;-58
2021/12/06 05:52:49;;;;;;;42.40;37.80;;;;;;;0.92;90.65;97056.50;106231;1324;22549;-57
2021/12/06 05:55:17;;;;;;;39.30;35.00;;;;;;;0.92;90.79;97051.87;106282;1325;22466;-56
2021/12/06 05:57:46;;;;;;;42.00;37.70;;;;;;;0.93;90.41;97055.97;106278;1324;22549;-58
2021/12/06 06:00:19;;;;;;;43.00;38.70;;;;;;;0.98;90.33;97062.63;106263;1324;22487;-58
2021/12/06 06:02:48;;;;;;;40.70;36.60;;;;;;;1.04;90.16;97072.31;106253;1325;22430;-57
2021/12/06 06:05:18;;;;;;;37.20;33.40;;;;;;;1.06;89.87;97072.96;106287;1324;23663;-59
2021/12/06 06:07:47;;;;;;;38.50;34.40;;;;;;;1.08;90.06;97073.50;106291;1324;22452;-58
2021/12/06 06:10:15;;;;;;;36.90;33.00;;;;;;;1.11;89.94;97076.77;106251;1317;23350;-58
2021/12/06 06:12:44;;;;;;;34.00;30.50;;;;;;;1.17;89.84;97077.27;106297;1324;22495;-58
2021/12/06 06:15:13;;;;;;;37.80;33.70;;;;;;;1.18;90.04;97073.77;106251;1324;22596;-59
2021/12/06 06:17:47;;;;;;;34.10;30.60;;;;;;;1.13;90.13;97076.23;106223;1325;22598;-57
2021/12/06 06:20:36;;;;;;;36.10;32.50;;;;;;;1.07;90.24;97077.85;106194;1324;22360;-57
2021/12/06 06:23:05;;;;;;;37.40;33.60;;;;;;;1.05;90.03;97079.59;106262;1324;22327;-58
2021/12/06 06:25:33;;;;;;;36.90;33.10;;;;;;;1.06;89.87;97080.27;106258;1324;23149;-59
2021/12/06 06:28:03;;;;;;;37.80;33.80;;;;;;;1.07;89.89;97081.20;106277;1324;22416;-59
2021/12/06 06:30:33;;;;;;;38.00;34.10;;;;;;;1.05;90.07;97083.83;106300;1325;22515;-59
2021/12/06 06:33:02;;;;;;;37.00;32.50;;;;;;;1.02;90.10;97081.20;106242;1324;22484;-58
2021/12/06 06:35:30;;;;;;;36.00;32.20;;;;;;;1.02;90.33;97077.23;106267;1323;22826;-58
2021/12/06 06:37:59;;;;;;;37.80;33.90;;;;;;;1.01;90.41;97080.25;106269;1323;22290;-58
2021/12/06 06:40:27;;;;;;;37.40;33.60;;;;;;;0.98;90.71;97079.91;106270;1323;23354;-58
2021/12/06 06:42:55;;;;;;;43.30;38.50;;;;;;;0.89;90.49;97085.45;106265;1323;22551;-58
2021/12/06 06:45:24;;;;;;;40.30;35.90;;;;;;;0.87;90.51;97086.88;106297;1323;22467;-58
2021/12/06 06:47:52;;;;;;;34.30;30.60;;;;;;;0.85;90.49;97097.99;106265;1323;23140;-58
2021/12/06 06:50:21;;;;;;;35.00;31.30;;;;;;;0.87;90.93;97104.57;106277;1323;23244;-58
2021/12/06 06:52:50;;;;;;;32.60;29.30;;;;;;;0.84;90.76;97110.98;106276;1323;22385;-57
2021/12/06 06:55:19;;;;;;;32.40;29.20;;;;;;;0.85;90.89;97117.83;106219;1323;22450;-58
2021/12/06 06:57:50;;;;;;;32.20;29.10;;;;;;;0.82;90.75;97120.25;106308;1323;22520;-58
2021/12/06 07:00:22;;;;;;;31.80;28.60;;;;;;;0.81;90.78;97120.13;106268;1323;23214;-58
2021/12/06 07:02:50;;;;;;;31.60;28.30;;;;;;;0.81;90.86;97132.80;106263;1323;23276;-58
2021/12/06 07:05:19;;;;;;;30.30;27.20;;;;;;;0.82;91.32;97134.98;106311;1323;22447;-58
2021/12/06 07:07:47;;;;;;;33.90;29.20;;;;;;;0.77;91.46;97132.56;106290;1323;22507;-58
2021/12/06 07:10:16;;;;;;;26.10;23.40;;;;;;;0.74;91.23;97137.33;106290;1323;22491;-58
2021/12/06 07:12:47;;;;;;;28.70;25.90;;;;;;;0.75;91.45;97138.43;106266;1323;22463;-58
2021/12/06 07:15:25;;;;;;;29.10;26.10;;;;;;;0.74;91.38;97147.55;106299;1323;23134;-59
2021/12/06 07:17:53;;;;;;;28.30;25.50;;;;;;;0.74;91.22;97150.63;106310;1323;22379;-58
2021/12/06 07:20:23;;;;;;;27.30;24.70;;;;;;;0.75;91.39;97148.09;106236;1323;22471;-56
2021/12/06 07:22:52;;;;;;;27.70;24.90;;;;;;;0.73;91.36;97139.80;106274;1323;23656;-57
2021/12/06 07:25:27;;;;;;;26.00;23.60;;;;;;;0.73;91.13;97138.84;106284;1323;23152;-58
2021/12/06 07:27:58;;;;;;;27.50;24.60;;;;;;;0.75;91.24;97140.24;106196;1324;23241;-58
2021/12/06 07:30:26;;;;;;;27.10;24.40;;;;;;;0.73;91.25;97143.41;106230;1324;22314;-58
2021/12/06 07:32:54;;;;;;;26.00;23.40;;;;;;;0.73;91.40;97144.99;106328;1323;23059;-57
2021/12/06 07:35:23;;;;;;;26.60;23.90;;;;;;;0.74;91.13;97151.41;106266;1323;22479;-57
2021/12/06 07:37:51;;;;;;;27.10;24.50;;;;;;;0.74;91.06;97154.71;106310;1323;22566;-59
2021/12/06 07:40:19;;;;;;;28.30;25.50;;;;;;;0.78;90.77;97157.39;106320;1323;23239;-57
2021/12/06 07:42:47;;;;;;;28.90;26.10;;;;;;;0.84;90.87;97158.55;106312;1323;22695;-57
2021/12/06 07:45:17;;;;;;;29.10;26.10;;;;;;;0.84;90.70;97155.80;106321;1323;22608;-58
2021/12/06 07:47:46;;;;;;;33.10;29.90;;;;;;;0.91;90.77;97152.55;106322;1323;23290;-59
2021/12/06 07:50:18;;;;;;;35.00;31.60;;;;;;;1.01;90.50;97150.34;106274;1324;22489;-58
2021/12/06 07:52:50;;;;;;;34.50;31.20;;;;;;;1.06;90.25;97154.14;106253;1323;22285;-59
2021/12/06 07:55:20;;;;;;;37.00;33.50;;;;;;;1.07;90.34;97158.56;106250;1323;22372;-59
2021/12/06 07:57:50;;;;;;;30.60;27.70;;;;;;;1.08;90.12;97160.20;106266;1324;22470;-58
2021/12/06 08:00:20;;;;;;;29.10;26.30;;;;;;;1.10;90.34;97164.16;106301;1323;22502;-58
2021/12/06 08:02:49;;;;;;;30.40;27.50;;;;;;;1.08;90.27;97165.25;106259;1323;23415;-58
2021/12/06 08:05:30;;;;;;;31.10;28.20;;;;;;;1.09;90.13;97166.17;106304;1323;22366;-58
2021/12/06 08:08:01;;;;;;;30.50;27.50;;;;;;;1.09;90.20;97166.32;106289;1323;22484;-58
2021/12/06 08:10:31;;;;;;;29.50;26.50;;;;;;;1.06;90.10;97159.76;106275;1323;22430;-58
2021/12/06 08:12:59;;;;;;;33.40;30.10;;;;;;;1.02;90.23;97163.02;106298;1323;22420;-58
2021/12/06 08:15:27;;;;;;;31.10;27.90;;;;;;;1.00;90.11;97162.16;106289;1323;22465;-58
2021/12/06 08:17:56;;;;;;;32.20;28.90;;;;;;;1.00;90.07;97160.52;106266;1323;23043;-58
2021/12/06 08:20:24;;;;;;;32.70;29.50;;;;;;;1.04;90.03;97169.14;106267;1323;22389;-57
2021/12/06 08:22:52;;;;;;;39.20;35.20;;;;;;;1.08;89.91;97168.01;106314;1323;22471;-57
2021/12/06 08:25:20;;;;;;;34.20;30.70;;;;;;;1.08;90.13;97171.70;106291;1323;22402;-58
2021/12/06 08:27:50;;;;;;;35.80;32.30;;;;;;;1.04;90.30;97171.75;106281;1323;22467;-58
2021/12/06 08:30:22;;;;;;;36.80;33.20;;;;;;;0.98;90.13;97172.73;106255;1323;22374;-57
2021/12/06 08:32:52;;;;;;;33.20;29.90;;;;;;;0.96;90.15;97172.59;106075;1323;22464;-58
2021/12/06 08:35:35;;;;;;;31.80;28.50;;;;;;;0.94;90.37;97179.26;106312;1323;22285;-57
2021/12/06 08:38:05;;;;;;;32.50;29.30;;;;;;;0.86;90.31;97185.84;106293;1323;23051;-56
2021/12/06 08:40:34;;;;;;;32.00;29.10;;;;;;;0.84;90.34;97185.77;106300;1323;22484;-58
2021/12/06 08:43:03;;;;;;;34.60;31.20;;;;;;;0.81;90.46;97187.70;106345;1323;22483;-58
2021/12/06 08:45:31;;;;;;;36.20;32.60;;;;;;;0.80;90.14;97184.99;106244;1323;23153;-58
2021/12/06 08:48:00;;;;;;;36.10;32.80;;;;;;;0.80;90.58;97189.49;106306;1323;22403;-58
2021/12/06 08:50:29;;;;;;;36.90;33.20;;;;;;;0.73;90.54;97189.45;106299;1323;22359;-60
2021/12/06 08:52:57;;;;;;;37.80;34.00;;;;;;;0.69;90.49;97191.89;106325;1323;23272;-58
2021/12/06 08:55:25;;;;;;;38.60;35.00;;;;;;;0.71;90.44;97191.75;106230;1323;22494;-59
2021/12/06 08:57:55;;;;;;;39.80;35.90;;;;;;;0.74;90.53;97187.39;106279;1323;22603;-57
2021/12/06 09:00:27;;;;;;;44.60;40.40;;;;;;;0.77;90.46;97191.23;106280;1323;22307;-56
2021/12/06 09:02:56;;;;;;;43.20;38.90;;;;;;;0.80;90.46;97191.45;106220;1324;22452;-57
2021/12/06 09:05:29;;;;;;;39.40;35.70;;;;;;;0.86;90.44;97198.61;106321;1323;22331;-58
2021/12/06 09:07:57;;;;;;;41.80;37.80;;;;;;;0.92;90.48;97203.50;106322;1323;22453;-58
2021/12/06 09:10:26;;;;;;;32.90;29.90;;;;;;;1.00;90.37;97203.45;106263;1325;22568;-58
2021/12/06 09:12:54;;;;;;;41.90;37.90;;;;;;;1.08;90.39;97199.30;106297;1323;22468;-58
2021/12/06 09:15:23;;;;;;;40.00;36.20;;;;;;;1.08;90.46;97195.60;106287;1323;22534;-58
2021/12/06 09:17:53;;;;;;;41.60;37.50;;;;;;;1.11;90.31;97199.29;106319;1323;22495;-58
2021/12/06 09:20:26;;;;;;;41.50;37.30;;;;;;;1.17;90.47;97198.52;106316;1323;23354;-58
2021/12/06 09:22:56;;;;;;;38.30;34.50;;;;;;;1.22;90.25;97198.70;106291;1322;22464;-57
2021/12/06 09:25:24;;;;;;;37.20;33.80;;;;;;;1.27;90.40;97193.70;106314;1323;23213;-57
2021/12/06 09:27:52;;;;;;;40.20;36.30;;;;;;;1.27;90.14;97194.98;106273;1322;22485;-57
2021/12/06 09:30:24;;;;;;;41.00;37.10;;;;;;;1.29;90.42;97195.63;106290;1323;22466;-57
2021/12/06 09:32:55;;;;;;;36.30;32.80;;;;;;;1.28;90.24;97199.45;106214;1323;137930;-58
2021/12/06 09:35:27;;;;;;;35.60;32.20;;;;;;;1.28;90.23;97199.19;106298;1323;22427;-57
2021/12/06 09:37:59;;;;;;;36.30;32.70;;;;;;;1.32;90.12;97203.73;106290;1323;22472;-58
2021/12/06 09:40:29;;;;;;;35.40;31.90;;;;;;;1.41;90.20;97210.71;106294;1323;23024;-57
2021/12/06 09:43:01;;;;;;;37.50;34.00;;;;;;;1.40;89.98;97211.94;106256;1323;22500;-58
2021/12/06 09:45:31;;;;;;;36.60;32.90;;;;;;;1.34;90.00;97207.34;106320;1323;22391;-58
2021/12/06 09:48:03;;;;;;;34.90;31.60;;;;;;;1.37;89.97;97209.64;106319;1323;22404;-57
2021/12/06 09:50:45;;;;;;;36.80;33.40;;;;;;;1.41;89.85;97210.73;106151;1323;236892;-58
2021/12/06 09:53:18;;;;;;;40.10;36.20;;;;;;;1.44;89.84;97213.19;106318;1323;23153;-59
2021/12/06 09:55:49;;;;;;;36.80;33.50;;;;;;;1.42;89.72;97208.55;106330;1322;23666;-58
2021/12/06 09:58:18;;;;;;;41.90;38.00;;;;;;;1.39;89.75;97210.92;106310;1323;23378;-58
2021/12/06 10:00:55;;;;;;;40.40;36.50;;;;;;;1.34;89.80;97204.80;106306;1323;23261;-57
2021/12/06 10:03:28;;;;;;;39.50;35.80;;;;;;;1.29;89.56;97204.44;106307;1323;22469;-58
2021/12/06 10:06:04;;;;;;;36.00;32.60;;;;;;;1.25;89.64;97199.63;106197;1323;137448;-58
2021/12/06 10:08:36;;;;;;;47.50;42.90;;;;;;;1.19;89.78;97205.33;106275;1322;23131;-59
2021/12/06 10:11:07;;;;;;;45.60;41.20;;;;;;;1.16;89.88;97203.88;106130;1318;22500;-59
2021/12/06 10:13:36;;;;;;;54.90;49.40;;;;;;;1.20;89.83;97203.43;106258;1325;22408;-59
2021/12/06 10:16:04;;;;;;;59.70;53.50;;;;;;;1.26;89.74;97207.13;106255;1324;22509;-59
2021/12/06 10:18:33;;;;;;;64.40;57.50;;;;;;;1.24;89.67;97209.61;106250;1326;22412;-59
2021/12/06 10:21:02;;;;;;;55.70;50.00;;;;;;;1.25;89.69;97205.69;106276;1324;22412;-59
2021/12/06 10:23:32;;;;;;;48.00;42.70;;;;;;;1.29;89.68;97206.20;106271;1324;22981;-59
2021/12/06 10:26:00;;;;;;;45.70;41.20;;;;;;;1.28;89.68;97209.21;106250;1324;22511;-60
2021/12/06 10:28:30;;;;;;;44.90;40.40;;;;;;;1.24;89.53;97206.74;106278;1324;22399;-58
2021/12/06 10:31:02;;;;;;;47.30;42.70;;;;;;;1.20;89.50;97208.52;106305;1325;22461;-59
2021/12/06 10:33:40;;;;;;;48.80;44.10;;;;;;;1.19;89.43;97205.81;106188;1325;22285;-59
2021/12/06 10:36:13;;;;;;;50.50;45.60;;;;;;;1.18;89.54;97205.86;106294;1325;22483;-59
2021/12/06 10:38:47;;;;;;;53.80;48.60;;;;;;;1.13;89.44;97207.84;106290;1324;23167;-60
2021/12/06 10:41:18;;;;;;;58.20;52.30;;;;;;;1.07;89.48;97204.35;106119;1326;138243;-59
2021/12/06 10:44:01;;;;;;;61.50;55.50;;;;;;;1.06;89.43;97206.84;106297;1324;22377;-59
2021/12/06 10:46:33;;;;;;;62.80;56.50;;;;;;;1.01;89.38;97208.12;106278;1326;23207;-59
2021/12/06 10:49:06;;;;;;;60.60;54.00;;;;;;;0.94;89.35;97211.56;106288;1320;23175;-60
2021/12/06 10:51:36;;;;;;;62.40;54.90;;;;;;;0.91;89.49;97207.83;106293;1326;22572;-58
2021/12/06 10:54:15;;;;;;;58.50;52.20;;;;;;;0.84;89.54;97212.23;106290;1326;22405;-58
2021/12/06 10:56:48;;;;;;;59.00;52.30;;;;;;;0.80;89.68;97212.83;106279;1324;22526;-59
2021/12/06 10:59:18;;;;;;;58.40;52.10;;;;;;;0.71;89.80;97214.14;106260;1323;23181;-59
2021/12/06 11:01:51;;;;;;;69.30;56.40;;;;;;;0.68;89.86;97216.13;106293;1325;22500;-60
2021/12/06 11:04:24;;;;;;;59.80;53.40;;;;;;;0.65;90.04;97224.38;106320;1326;22469;-59
2021/12/06 11:07:01;;;;;;;64.10;55.50;;;;;;;0.62;90.04;97221.59;106324;1326;22378;-59
2021/12/06 11:09:31;;;;;;;59.50;53.60;;;;;;;0.59;89.81;97227.70;106307;1325;23181;-59
2021/12/06 11:12:04;;;;;;;48.50;43.20;;;;;;;0.59;89.83;97230.14;106215;1325;137313;-59
2021/12/06 11:14:39;;;;;;;49.40;44.30;;;;;;;0.56;89.65;97227.41;106234;1325;23255;-59
2021/12/06 11:17:18;;;;;;;50.30;42.10;;;;;;;0.52;89.91;97227.58;106328;1325;22477;-60
2021/12/06 11:19:51;;;;;;;48.30;43.30;;;;;;;0.50;89.90;97227.73;106323;1324;22600;-59
2021/12/06 11:22:23;;;;;;;50.50;45.30;;;;;;;0.48;90.07;97224.89;106331;1323;23303;-58
2021/12/06 11:24:54;;;;;;;50.70;43.80;;;;;;;0.47;90.06;97226.95;106477;1322;22538;-58
2021/12/06 11:27:37;;;;;;;48.90;43.80;;;;;;;0.45;90.00;97230.44;106452;1321;22310;-58
2021/12/06 11:30:11;;;;;;;45.50;40.90;;;;;;;0.46;89.95;97228.58;106371;1323;23119;-58
2021/12/06 11:32:54;;;;;;;46.10;41.60;;;;;;;0.43;90.09;97229.25;106468;1320;22609;-58
2021/12/06 11:35:24;;;;;;;44.80;40.20;;;;;;;0.40;90.07;97226.25;106457;1323;22596;-58
2021/12/06 11:38:00;;;;;;;43.20;38.90;;;;;;;0.35;90.18;97224.34;106453;1322;22459;-59
2021/12/06 11:40:33;;;;;;;44.40;39.90;;;;;;;0.33;90.02;97228.61;106436;1322;22564;-58
2021/12/06 11:43:13;;;;;;;;;;;;;;;0.30;90.11;97228.33;106382;1322;137781;-59
2021/12/06 11:45:51;;;;;;;43.70;39.40;;;;;;;0.27;90.12;97230.66;106449;1319;22501;-60
2021/12/06 11:48:24;;;;;;;47.10;42.40;;;;;;;0.27;90.17;97230.13;106468;1323;22488;-58
2021/12/06 11:50:53;;;;;;;46.30;41.70;;;;;;;0.26;90.19;97232.23;106431;1322;23076;-59
2021/12/06 11:53:32;;;;;;;45.70;40.90;;;;;;;0.25;90.28;97228.64;106456;1321;22432;-59
2021/12/06 11:56:09;;;;;;;44.80;40.30;;;;;;;0.28;90.30;97227.56;106488;1321;22398;-59
2021/12/06 11:58:44;;;;;;;49.90;44.90;;;;;;;0.29;90.27;97227.45;106458;1321;24387;-59
2021/12/06 12:01:15;;;;;;;;;;;;;;;0.29;90.29;97224.23;106498;1321;23174;-58